Terminal Aerodrome Forecast
Issued by NWS Charleston, WV

Current Version | Previous Version | Graphics & Text | Print | Product List | Glossary On
Versions: 1 2 3 4 5 6 7 8 9 10 11 12 13 14 15 16 17 18 19 20 21 22 23 24
000
FTUS41 KRLX 161130 CCA
TAFBKW
TAF COR
KBKW 161130Z 1612/1712 32010KT P6SM BKN015
      TEMPO 1612/1614 BKN010
     FM161500 32011G18KT P6SM BKN025
     FM161800 33011G18KT P6SM SCT025
     FM162100 33009KT P6SM FEW040
     FM170000 34005KT P6SM SKC=

USA.gov is the U.S. government's official web portal to all federal, state and local government web resources and services.